Time;durP1;ratioP1;P1;durP2;ratioP2;P2;SDS_P1;SDS_P2;PMS_P1;PMS_P2;Temp;Humidity;BMP_temperature;BMP_pressure;BME280_temperature;BME280_humidity;BME280_pressure;Samples;Min_cycle;Max_cycle;Signal;HPM_P1;HPM_P2
2023/05/31 00:00:23;;;;;;;11.43;2.70;;;13.00;99.90;;;;;;4998449;28;20292;-86
2023/05/31 00:02:49;;;;;;;5.85;1.98;;;13.30;99.90;;;;;;5032811;28;20299;-85
2023/05/31 00:05:15;;;;;;;4.32;1.90;;;;;;;;;;5034564;28;20254;-86
2023/05/31 00:07:40;;;;;;;5.63;1.73;;;13.60;99.90;;;;;;4983832;28;20192;-86
2023/05/31 00:10:06;;;;;;;4.70;1.63;;;13.50;99.90;;;;;;5014364;28;20445;-86
2023/05/31 00:12:32;;;;;;;2.75;1.48;;;13.60;99.90;;;;;;5013325;28;20181;-86
2023/05/31 00:14:57;;;;;;;5.22;1.45;;;12.90;99.90;;;;;;4996651;28;20175;-86
2023/05/31 00:17:23;;;;;;;6.10;2.00;;;;;;;;;;4996559;28;20184;-86
2023/05/31 00:19:50;;;;;;;6.75;2.00;;;;;;;;;;5013969;28;20677;-86
2023/05/31 00:22:16;;;;;;;3.47;1.67;;;13.00;99.90;;;;;;5014059;28;20227;-87
2023/05/31 00:24:45;;;;;;;2.22;1.50;;;13.10;99.90;;;;;;5017852;28;20288;-87
2023/05/31 00:27:11;;;;;;;3.90;1.55;;;12.80;99.90;;;;;;5000505;28;20238;-88
2023/05/31 00:29:37;;;;;;;3.63;1.85;;;;;;;;;;5017777;28;20240;-87
2023/05/31 00:32:03;;;;;;;2.80;1.73;;;12.70;99.90;;;;;;5019012;28;20192;-85
2023/05/31 00:34:29;;;;;;;2.22;1.75;;;;;;;;;;5047986;28;20185;-86
2023/05/31 00:36:55;;;;;;;2.35;1.85;;;;;;;;;;5032746;28;20261;-85
2023/05/31 00:39:20;;;;;;;3.70;1.75;;;12.70;99.90;;;;;;5029298;28;20216;-86
2023/05/31 00:41:46;;;;;;;6.45;1.83;;;;;;;;;;5014177;28;20189;-86
2023/05/31 00:44:12;;;;;;;5.20;1.92;;;;;;;;;;5013958;28;20197;-86
2023/05/31 00:46:40;;;;;;;2.65;2.13;;;13.00;99.90;;;;;;5014447;28;20174;-87
2023/05/31 00:49:06;;;;;;;8.48;2.08;;;13.10;99.90;;;;;;5013757;28;20185;-87
2023/05/31 00:51:36;;;;;;;4.50;2.00;;;12.50;99.90;;;;;;5017274;28;20655;-87
2023/05/31 00:54:02;;;;;;;3.50;1.88;;;13.10;99.90;;;;;;5013791;28;20169;-86
2023/05/31 00:56:29;;;;;;;2.65;1.63;;;12.80;99.90;;;;;;5013732;28;20169;-87
2023/05/31 00:58:57;;;;;;;4.10;1.60;;;12.80;99.90;;;;;;5013526;28;20626;-87
2023/05/31 01:01:25;;;;;;;3.63;2.17;;;12.90;99.90;;;;;;5014046;28;20231;-88
2023/05/31 01:03:53;;;;;;;2.33;1.58;;;12.30;99.90;;;;;;5028716;28;20181;-87
2023/05/31 01:06:18;;;;;;;1.88;1.63;;;13.00;99.90;;;;;;5013199;28;20196;-87
2023/05/31 01:08:44;;;;;;;5.55;2.10;;;;;;;;;;4996201;28;20622;-87
2023/05/31 01:11:19;;;;;;;7.70;1.83;;;12.30;99.90;;;;;;5013365;28;20255;-87
2023/05/31 01:13:58;;;;;;;2.20;1.58;;;12.10;99.90;;;;;;5013716;28;20260;-87
2023/05/31 01:16:36;;;;;;;2.72;2.00;;;12.40;95.60;;;;;;5013444;28;20184;-87
2023/05/31 01:19:06;;;;;;;3.47;1.80;;;12.10;99.90;;;;;;4996146;28;20197;-88
2023/05/31 01:21:44;;;;;;;2.90;1.70;;;12.40;99.90;;;;;;5018281;28;20239;-88
2023/05/31 01:24:34;;;;;;;5.70;2.13;;;12.70;99.90;;;;;;5025658;28;20666;-88
2023/05/31 01:27:02;;;;;;;5.03;1.88;;;12.30;99.90;;;;;;4993992;28;20181;-88
2023/05/31 01:29:32;;;;;;;3.55;1.92;;;11.70;99.90;;;;;;4995075;28;20196;-88
2023/05/31 01:31:59;;;;;;;2.90;1.75;;;11.90;99.90;;;;;;4998025;28;20170;-88
2023/05/31 01:34:25;;;;;;;2.65;1.77;;;11.70;99.90;;;;;;4997751;28;20190;-88
2023/05/31 01:36:51;;;;;;;4.20;2.20;;;;;;;;;;4998087;28;20208;-88
2023/05/31 01:39:19;;;;;;;3.58;1.55;;;12.10;99.90;;;;;;4997744;28;20210;-88
2023/05/31 01:41:46;;;;;;;7.35;1.85;;;12.40;99.90;;;;;;4997612;28;20273;-88
2023/05/31 01:44:14;;;;;;;3.17;1.40;;;12.10;99.90;;;;;;4995781;28;20232;-87
2023/05/31 01:46:41;;;;;;;3.40;1.60;;;11.80;99.90;;;;;;4997540;28;20174;-87
2023/05/31 01:49:08;;;;;;;2.70;2.00;;;11.90;99.90;;;;;;4996007;28;20251;-87
2023/05/31 01:51:36;;;;;;;2.65;1.60;;;12.10;99.90;;;;;;4997282;28;20178;-87
2023/05/31 01:54:02;;;;;;;7.45;1.83;;;11.90;99.90;;;;;;4995760;28;20190;-86
2023/05/31 01:56:30;;;;;;;4.20;1.83;;;12.20;99.90;;;;;;4995830;28;20181;-87
2023/05/31 01:58:58;;;;;;;2.17;1.63;;;11.50;99.90;;;;;;4996973;28;20185;-87
2023/05/31 02:01:24;;;;;;;3.47;1.65;;;11.90;99.90;;;;;;4996609;28;20272;-87
2023/05/31 02:03:51;;;;;;;4.47;1.85;;;11.80;99.90;;;;;;4995990;28;20269;-87
2023/05/31 02:06:17;;;;;;;4.28;2.15;;;11.50;99.90;;;;;;4996697;28;20185;-86
2023/05/31 02:08:43;;;;;;;2.22;1.75;;;11.70;99.90;;;;;;4995966;28;20213;-87
2023/05/31 02:11:09;;;;;;;2.88;1.73;;;;;;;;;;4995430;28;20217;-86
2023/05/31 02:13:35;;;;;;;7.55;1.95;;;12.00;99.90;;;;;;4997100;28;20200;-87
2023/05/31 02:16:03;;;;;;;7.03;2.47;;;;;;;;;;4996892;28;20690;-87
2023/05/31 02:18:30;;;;;;;1.90;1.50;;;11.60;99.90;;;;;;4995225;28;20193;-86
2023/05/31 02:20:56;;;;;;;2.70;1.55;;;11.40;99.90;;;;;;4996595;28;20304;-86
2023/05/31 02:23:22;;;;;;;2.17;1.73;;;11.30;99.90;;;;;;4996368;28;20186;-86
2023/05/31 02:25:48;;;;;;;5.20;1.50;;;;;;;;;;5031361;28;20649;-86
2023/05/31 02:28:14;;;;;;;3.80;2.08;;;11.50;99.90;;;;;;5015802;28;20204;-88
2023/05/31 02:30:40;;;;;;;3.22;1.58;;;11.30;99.90;;;;;;5031456;28;20214;-86
2023/05/31 02:33:07;;;;;;;2.40;1.90;;;11.50;99.90;;;;;;4998467;28;20259;-87
2023/05/31 02:35:33;;;;;;;2.47;1.52;;;11.20;99.90;;;;;;4998224;28;20243;-86
2023/05/31 02:37:59;;;;;;;5.80;1.92;;;;;;;;;;4998319;28;20181;-86
2023/05/31 02:40:25;;;;;;;4.80;2.00;;;11.10;99.90;;;;;;5014855;28;20574;-86
2023/05/31 02:42:51;;;;;;;7.50;1.88;;;;;;;;;;5015024;28;20185;-86
2023/05/31 02:45:17;;;;;;;3.00;1.70;;;11.20;99.90;;;;;;5031110;28;20185;-86
2023/05/31 02:47:43;;;;;;;2.20;1.67;;;;;;;;;;5015644;28;20174;-86
2023/05/31 02:50:10;;;;;;;4.22;1.83;;;11.90;99.90;;;;;;5015726;28;20280;-87
2023/05/31 02:52:38;;;;;;;3.38;1.92;;;11.60;99.90;;;;;;5016038;28;20197;-86
2023/05/31 02:55:05;;;;;;;2.55;1.48;;;11.30;99.90;;;;;;5016495;28;20187;-84
2023/05/31 02:57:31;;;;;;;5.35;2.30;;;11.60;99.90;;;;;;5015824;28;20216;-85
2023/05/31 03:00:00;;;;;;;4.15;1.77;;;11.50;99.90;;;;;;5016395;28;20275;-87
2023/05/31 03:02:26;;;;;;;11.40;2.53;;;11.80;99.90;;;;;;5018589;28;20338;-86
2023/05/31 03:04:52;;;;;;;3.17;2.00;;;;;;;;;;5023158;28;20165;-87
2023/05/31 03:07:18;;;;;;;5.20;1.70;;;11.40;99.90;;;;;;5036537;28;20189;-88
2023/05/31 03:09:43;;;;;;;3.42;1.90;;;11.30;99.90;;;;;;5016276;28;20177;-88
2023/05/31 03:12:10;;;;;;;6.85;2.20;;;11.40;99.90;;;;;;4998847;28;20181;-87
2023/05/31 03:14:36;;;;;;;2.90;1.98;;;11.70;99.90;;;;;;5016074;28;20631;-82
2023/05/31 03:17:03;;;;;;;3.33;1.90;;;11.40;99.90;;;;;;4997984;28;20178;-84
2023/05/31 03:19:28;;;;;;;3.40;1.80;;;11.80;99.90;;;;;;4997841;28;20215;-83
2023/05/31 03:21:54;;;;;;;4.38;2.05;;;;;;;;;;5030713;28;20268;-82
2023/05/31 03:24:20;;;;;;;5.25;1.45;;;11.50;99.90;;;;;;5005693;28;20337;-82
2023/05/31 03:26:46;;;;;;;5.15;1.80;;;11.70;99.90;;;;;;4995384;28;20186;-82
2023/05/31 03:29:12;;;;;;;2.92;1.85;;;;;;;;;;4985088;28;20539;-82
2023/05/31 03:31:37;;;;;;;7.18;1.95;;;11.30;99.90;;;;;;4994337;28;20222;-83
2023/05/31 03:34:03;;;;;;;2.70;1.98;;;;;;;;;;4992787;28;20228;-84
2023/05/31 03:36:30;;;;;;;3.90;1.90;;;;;;;;;;4975889;28;20187;-82
2023/05/31 03:38:55;;;;;;;7.53;1.83;;;12.00;99.90;;;;;;4993774;28;20273;-82
2023/05/31 03:41:21;;;;;;;3.30;1.65;;;;;;;;;;4993612;28;20302;-82
2023/05/31 03:43:47;;;;;;;3.97;1.63;;;;;;;;;;4990724;28;20194;-82
2023/05/31 03:46:13;;;;;;;2.47;1.90;;;11.90;99.90;;;;;;4987336;28;20182;-83
2023/05/31 03:48:38;;;;;;;7.55;2.25;;;12.30;99.90;;;;;;5007714;28;20204;-83
2023/05/31 03:51:04;;;;;;;4.40;1.90;;;12.40;99.90;;;;;;5008363;28;20550;-83
2023/05/31 03:53:30;;;;;;;5.68;2.05;;;12.50;99.90;;;;;;4956090;28;20219;-82
2023/05/31 03:55:56;;;;;;;1.63;1.52;;;12.20;99.90;;;;;;4975256;28;20219;-82
2023/05/31 03:58:22;;;;;;;2.53;1.30;;;;;;;;;;4997536;28;20277;-82
2023/05/31 04:00:47;;;;;;;6.60;2.05;;;12.20;99.90;;;;;;4993453;28;20336;-82
2023/05/31 04:03:13;;;;;;;4.82;1.75;;;;;;;;;;4975789;28;20214;-82
2023/05/31 04:05:40;;;;;;;4.13;1.42;;;12.40;99.90;;;;;;4992415;28;20333;-82
2023/05/31 04:08:06;;;;;;;2.75;1.65;;;12.90;99.90;;;;;;4992833;28;20647;-82
2023/05/31 04:10:32;;;;;;;5.93;1.83;;;;;;;;;;4993023;28;20196;-82
2023/05/31 04:12:57;;;;;;;3.15;1.50;;;13.00;99.90;;;;;;4992650;28;20657;-84
2023/05/31 04:15:23;;;;;;;4.00;1.52;;;;;;;;;;4976186;28;20264;-83
2023/05/31 04:17:49;;;;;;;1.95;1.27;;;12.90;99.90;;;;;;4976021;28;20650;-84
2023/05/31 04:20:16;;;;;;;5.47;1.92;;;13.10;99.90;;;;;;4992845;28;20210;-85
2023/05/31 04:22:43;;;;;;;4.20;1.75;;;;;;;;;;4975845;28;20208;-84
2023/05/31 04:25:09;;;;;;;4.53;1.50;;;13.20;99.90;;;;;;4993738;28;20237;-84
2023/05/31 04:27:38;;;;;;;3.30;1.50;;;;;;;;;;4975823;28;20245;-84
2023/05/31 04:30:05;;;;;;;3.22;1.80;;;13.20;99.90;;;;;;4974862;28;20742;-85
2023/05/31 04:32:33;;;;;;;5.30;1.65;;;13.40;99.90;;;;;;4991537;28;20194;-84
2023/05/31 04:35:05;;;;;;;4.88;1.55;;;13.00;99.90;;;;;;4992788;28;20205;-84
2023/05/31 04:37:32;;;;;;;5.32;1.77;;;;;;;;;;4992354;28;20651;-82
2023/05/31 04:39:59;;;;;;;3.33;1.45;;;;;;;;;;4974814;28;20566;-83
2023/05/31 04:42:25;;;;;;;4.78;1.45;;;13.70;99.90;;;;;;4992359;28;20224;-84
2023/05/31 04:44:57;;;;;;;3.97;1.52;;;13.80;99.90;;;;;;4963326;28;20645;-84
2023/05/31 04:47:29;;;;;;;9.05;2.25;;;13.60;99.90;;;;;;4977251;28;20220;-84
2023/05/31 04:49:59;;;;;;;4.22;1.95;;;14.10;99.90;;;;;;4988967;28;20190;-84
2023/05/31 04:52:29;;;;;;;5.18;1.55;;;13.90;99.90;;;;;;4994183;28;20186;-84
2023/05/31 04:54:56;;;;;;;2.78;2.25;;;14.20;99.90;;;;;;4996505;28;20236;-83
2023/05/31 04:57:22;;;;;;;5.35;2.97;;;13.90;99.90;;;;;;4978059;28;20186;-83
2023/05/31 04:59:48;;;;;;;5.70;1.52;;;14.70;99.90;;;;;;5033130;28;20244;-82
2023/05/31 05:02:14;;;;;;;3.72;1.45;;;;;;;;;;5030470;28;20189;-83
2023/05/31 05:04:40;;;;;;;3.40;1.80;;;14.50;99.90;;;;;;5031197;28;20185;-83
2023/05/31 05:07:06;;;;;;;5.65;1.65;;;;;;;;;;5023206;28;20291;-84
2023/05/31 05:09:32;;;;;;;3.30;1.52;;;14.30;99.90;;;;;;5023148;28;20196;-82
2023/05/31 05:11:58;;;;;;;4.55;1.55;;;;;;;;;;5033832;28;20165;-83
2023/05/31 05:14:24;;;;;;;5.35;1.80;;;14.60;99.90;;;;;;5013575;28;20185;-82
2023/05/31 05:16:50;;;;;;;3.03;1.52;;;;;;;;;;5014831;28;20187;-83
2023/05/31 05:19:15;;;;;;;7.10;1.77;;;14.80;99.90;;;;;;5026512;28;20212;-84
2023/05/31 05:21:41;;;;;;;2.22;1.48;;;14.80;99.90;;;;;;5023036;28;20196;-85
2023/05/31 05:24:07;;;;;;;5.18;2.15;;;;;;;;;;5006190;28;20237;-84
2023/05/31 05:26:34;;;;;;;5.10;2.15;;;15.20;96.20;;;;;;5022072;28;20545;-84
2023/05/31 05:28:59;;;;;;;7.78;1.92;;;15.20;99.90;;;;;;5021889;28;20204;-84
2023/05/31 05:31:25;;;;;;;4.78;1.58;;;15.10;99.90;;;;;;5039399;28;20189;-84
2023/05/31 05:33:51;;;;;;;7.35;2.03;;;;;;;;;;5023979;28;20473;-84
2023/05/31 05:36:17;;;;;;;6.55;2.35;;;15.90;99.90;;;;;;5026932;28;20185;-84
2023/05/31 05:38:43;;;;;;;6.05;1.33;;;;;;;;;;5024392;28;20204;-84
2023/05/31 05:41:12;;;;;;;9.45;1.80;;;;;;;;;;5024686;28;20252;-83
2023/05/31 05:43:39;;;;;;;3.60;1.65;;;15.70;94.00;;;;;;5024126;28;20185;-85
2023/05/31 05:46:04;;;;;;;4.13;1.70;;;15.90;99.90;;;;;;5026900;28;20192;-84
2023/05/31 05:48:31;;;;;;;2.92;1.42;;;;;;;;;;5027594;28;20194;-81
2023/05/31 05:50:57;;;;;;;6.05;1.90;;;16.00;99.90;;;;;;5024462;28;20192;-83
2023/05/31 05:53:23;;;;;;;6.97;1.52;;;;;;;;;;5027019;28;20218;-85
2023/05/31 05:55:51;;;;;;;3.40;1.60;;;16.40;99.90;;;;;;5029166;28;20630;-84
2023/05/31 05:58:17;;;;;;;9.20;1.92;;;16.70;99.90;;;;;;5020269;28;20180;-85
2023/05/31 06:00:45;;;;;;;3.95;1.85;;;;;;;;;;5018890;28;20252;-84
2023/05/31 06:03:11;;;;;;;4.28;1.70;;;16.50;99.90;;;;;;4987515;28;20199;-84
2023/05/31 06:05:37;;;;;;;11.05;1.90;;;16.60;99.90;;;;;;5040029;28;20186;-85
2023/05/31 06:08:02;;;;;;;2.58;1.60;;;16.90;99.90;;;;;;5030532;28;20664;-85
2023/05/31 06:10:28;;;;;;;7.53;1.67;;;16.70;99.90;;;;;;5011813;28;20216;-84
2023/05/31 06:12:54;;;;;;;6.88;1.80;;;16.80;99.90;;;;;;5029557;28;20200;-85
2023/05/31 06:15:20;;;;;;;8.35;2.15;;;17.10;99.90;;;;;;5032654;28;20213;-84
2023/05/31 06:17:48;;;;;;;3.13;1.55;;;;;;;;;;5031904;28;20188;-84
2023/05/31 06:20:15;;;;;;;1.98;1.40;;;16.90;99.90;;;;;;5031693;28;20204;-84
2023/05/31 06:22:41;;;;;;;5.70;1.48;;;17.20;99.90;;;;;;5032224;28;20184;-84
2023/05/31 06:25:07;;;;;;;4.35;1.60;;;17.20;99.90;;;;;;5030971;28;20240;-84
2023/05/31 06:27:33;;;;;;;2.63;1.23;;;17.10;99.90;;;;;;5013439;28;20185;-84
2023/05/31 06:30:00;;;;;;;4.90;2.35;;;;;;;;;;4998960;28;20216;-84
2023/05/31 06:32:27;;;;;;;4.63;1.58;;;17.80;99.90;;;;;;5030738;28;20245;-84
2023/05/31 06:34:53;;;;;;;2.05;1.58;;;17.30;99.90;;;;;;5034678;28;20200;-85
2023/05/31 06:37:20;;;;;;;3.13;1.73;;;17.80;99.90;;;;;;4999332;28;20181;-85
2023/05/31 06:39:46;;;;;;;2.20;1.30;;;;;;;;;;5016169;28;20216;-85
2023/05/31 06:42:13;;;;;;;5.63;1.45;;;18.00;99.90;;;;;;5035380;28;20173;-84
2023/05/31 06:44:39;;;;;;;2.67;1.63;;;;;;;;;;5038003;28;20185;-83
2023/05/31 06:47:05;;;;;;;3.33;1.20;;;17.50;95.10;;;;;;5037179;28;20236;-85
2023/05/31 06:49:31;;;;;;;7.40;1.20;;;;;;;;;;5015189;28;20194;-85
2023/05/31 06:51:57;;;;;;;3.42;1.70;;;;;;;;;;5019091;28;20196;-85
2023/05/31 06:54:23;;;;;;;7.93;1.83;;;17.90;97.40;;;;;;5035027;28;20196;-84
2023/05/31 06:56:49;;;;;;;3.88;1.40;;;;;;;;;;5024463;28;20177;-84
2023/05/31 06:59:15;;;;;;;3.95;1.58;;;;;;;;;;5000787;28;20217;-84
2023/05/31 07:01:41;;;;;;;3.30;1.52;;;18.00;95.90;;;;;;5017749;28;20188;-85
2023/05/31 07:04:06;;;;;;;3.28;1.63;;;17.80;94.30;;;;;;5016594;28;20185;-85
2023/05/31 07:06:32;;;;;;;2.17;1.52;;;;;;;;;;5016418;28;20268;-84
2023/05/31 07:08:58;;;;;;;4.13;1.95;;;18.70;96.70;;;;;;5023547;28;20241;-85
2023/05/31 07:11:24;;;;;;;4.68;2.35;;;18.40;94.90;;;;;;5025788;28;20235;-84
2023/05/31 07:13:50;;;;;;;4.28;1.60;;;;;;;;;;5032798;28;20192;-84
2023/05/31 07:16:16;;;;;;;3.90;1.27;;;;;;;;;;5033046;28;20185;-85
2023/05/31 07:18:42;;;;;;;2.20;1.23;;;;;;;;;;5032411;28;20186;-85
2023/05/31 07:21:08;;;;;;;3.28;1.55;;;18.60;93.80;;;;;;5016746;28;20681;-84
2023/05/31 07:23:34;;;;;;;4.10;1.50;;;;;;;;;;5016974;28;20241;-84
2023/05/31 07:26:03;;;;;;;6.00;1.50;;;18.90;93.00;;;;;;4999239;28;20193;-84
2023/05/31 07:28:29;;;;;;;2.13;1.15;;;;;;;;;;5015882;28;20181;-84
2023/05/31 07:30:55;;;;;;;2.63;1.10;;;;;;;;;;4982432;28;20525;-85
2023/05/31 07:33:21;;;;;;;1.63;1.10;;;;;;;;;;5017718;28;20181;-84
2023/05/31 07:35:47;;;;;;;1.92;0.80;;;19.10;84.30;;;;;;5017749;28;20320;-84
2023/05/31 07:38:13;;;;;;;1.33;1.15;;;;;;;;;;5017224;28;20215;-84
2023/05/31 07:40:39;;;;;;;2.90;0.73;;;;;;;;;;5017147;28;20576;-84
2023/05/31 07:43:04;;;;;;;1.35;0.95;;;18.80;90.50;;;;;;5016725;28;20192;-84
2023/05/31 07:45:30;;;;;;;4.55;1.42;;;;;;;;;;5017284;28;20178;-85
2023/05/31 07:47:57;;;;;;;2.65;1.75;;;19.30;64.60;;;;;;5016039;28;20578;-86
2023/05/31 07:50:23;;;;;;;3.53;1.20;;;;;;;;;;5030445;28;20548;-84
2023/05/31 07:52:49;;;;;;;2.30;0.95;;;18.60;79.10;;;;;;5015075;28;20630;-85
2023/05/31 07:55:17;;;;;;;2.92;0.68;;;19.20;56.70;;;;;;5014177;28;20189;-84
2023/05/31 07:57:43;;;;;;;1.27;0.77;;;19.10;57.40;;;;;;5014501;28;20690;-85
2023/05/31 08:00:11;;;;;;;4.70;2.53;;;19.30;59.70;;;;;;4997372;28;20292;-86
2023/05/31 08:02:37;;;;;;;2.05;1.25;;;19.70;79.80;;;;;;4997972;28;20185;-85
2023/05/31 08:05:04;;;;;;;1.05;0.80;;;19.80;59.90;;;;;;5014591;28;20179;-85
2023/05/31 08:07:30;;;;;;;1.77;0.90;;;;;;;;;;4997990;28;20197;-88
2023/05/31 08:09:56;;;;;;;1.83;1.08;;;;;;;;;;5029169;28;20185;-86
2023/05/31 08:12:22;;;;;;;2.88;1.10;;;20.10;59.60;;;;;;5013825;28;20181;-83
2023/05/31 08:14:48;;;;;;;4.32;1.45;;;;;;;;;;5013909;28;20185;-84
2023/05/31 08:17:14;;;;;;;4.55;1.35;;;20.30;75.80;;;;;;5028932;28;20690;-84
2023/05/31 08:19:39;;;;;;;2.10;1.20;;;20.10;57.80;;;;;;5013662;28;20741;-84
2023/05/31 08:22:05;;;;;;;2.75;1.02;;;19.80;77.90;;;;;;5013409;28;20178;-84
2023/05/31 08:24:31;;;;;;;4.05;1.20;;;19.80;81.70;;;;;;5013754;28;20689;-84
2023/05/31 08:26:58;;;;;;;3.70;1.50;;;;;;;;;;5013337;28;20196;-84
2023/05/31 08:29:23;;;;;;;3.35;1.02;;;20.60;77.50;;;;;;5013741;28;20185;-85
2023/05/31 08:31:49;;;;;;;0.90;0.80;;;;;;;;;;4996075;28;20696;-85
2023/05/31 08:34:15;;;;;;;5.65;0.70;;;;;;;;;;5028396;28;20288;-84
2023/05/31 08:36:41;;;;;;;4.88;1.38;;;20.90;78.40;;;;;;5013495;28;20188;-84
2023/05/31 08:39:08;;;;;;;5.22;1.00;;;20.60;56.60;;;;;;5010765;28;20193;-85
2023/05/31 08:41:45;;;;;;;1.73;0.80;;;20.60;54.50;;;;;;5013583;28;20205;-85
2023/05/31 08:44:11;;;;;;;2.55;0.77;;;;;;;;;;5013129;28;20224;-85
2023/05/31 08:46:38;;;;;;;1.88;0.95;;;20.70;55.90;;;;;;5013381;28;20399;-84
2023/05/31 08:49:13;;;;;;;0.90;0.60;;;20.90;77.30;;;;;;5013226;28;20675;-84
2023/05/31 08:51:40;;;;;;;1.20;1.00;;;20.90;55.30;;;;;;5013334;28;20173;-84
2023/05/31 08:54:07;;;;;;;3.60;1.27;;;;;;;;;;4995789;28;20212;-84
2023/05/31 08:56:33;;;;;;;0.88;0.82;;;20.90;77.50;;;;;;5013480;28;20248;-85
2023/05/31 08:58:59;;;;;;;5.23;0.90;;;20.20;78.60;;;;;;5028699;28;20279;-84
2023/05/31 09:01:27;;;;;;;1.40;0.90;;;20.70;56.80;;;;;;4995437;28;20255;-84
2023/05/31 09:03:54;;;;;;;2.42;0.82;;;;;;;;;;5013692;28;20264;-84
2023/05/31 09:06:19;;;;;;;0.73;0.73;;;21.40;78.00;;;;;;5013343;28;20181;-85
2023/05/31 09:08:47;;;;;;;2.97;1.10;;;;;;;;;;4995926;28;20689;-85
2023/05/31 09:11:13;;;;;;;2.47;1.00;;;;;;;;;;5013116;28;20209;-85
2023/05/31 09:13:39;;;;;;;2.97;1.10;;;;;;;;;;5013332;28;20173;-85
2023/05/31 09:16:05;;;;;;;1.90;0.90;;;21.00;54.30;;;;;;5012878;28;20177;-84
2023/05/31 09:18:39;;;;;;;1.52;1.02;;;21.20;56.30;;;;;;5013131;28;20256;-85
2023/05/31 09:21:12;;;;;;;1.60;0.90;;;20.90;67.10;;;;;;5012627;28;20288;-85
2023/05/31 09:23:55;;;;;;;2.65;0.80;;;20.90;76.50;;;;;;4997540;28;20286;-86
2023/05/31 09:26:21;;;;;;;4.03;0.98;;;20.70;55.50;;;;;;5012686;28;20201;-85
2023/05/31 09:28:54;;;;;;;2.65;1.02;;;21.00;56.50;;;;;;5013045;28;20201;-85
2023/05/31 09:31:20;;;;;;;2.47;1.38;;;21.20;77.30;;;;;;4979018;28;20173;-85
2023/05/31 09:33:56;;;;;;;1.45;0.95;;;21.60;56.10;;;;;;5013061;28;20625;-86
2023/05/31 09:36:30;;;;;;;3.25;0.90;;;21.60;76.20;;;;;;5012989;28;20184;-86
2023/05/31 09:39:14;;;;;;;1.73;1.48;;;21.60;56.20;;;;;;5012934;28;20214;-87
2023/05/31 09:41:40;;;;;;;2.83;0.85;;;;;;;;;;5028212;28;20200;-85
2023/05/31 09:44:08;;;;;;;1.42;0.88;;;21.60;75.00;;;;;;5012703;28;20628;-85
2023/05/31 09:46:34;;;;;;;1.17;1.08;;;21.60;55.60;;;;;;5012789;28;20642;-86
2023/05/31 09:49:03;;;;;;;2.00;1.13;;;21.10;68.60;;;;;;4995445;28;20186;-86
2023/05/31 09:51:30;;;;;;;4.03;1.20;;;;;;;;;;5014791;28;20174;-85
2023/05/31 09:53:56;;;;;;;0.65;0.55;;;21.50;53.20;;;;;;4999063;28;20630;-86
2023/05/31 09:56:23;;;;;;;2.67;0.98;;;21.80;74.40;;;;;;5016064;28;20639;-85
2023/05/31 09:58:50;;;;;;;1.95;0.98;;;21.30;74.00;;;;;;5016516;28;20184;-86
2023/05/31 10:01:17;;;;;;;1.80;0.93;;;;;;;;;;5016443;28;20250;-87
2023/05/31 10:03:46;;;;;;;4.15;0.77;;;21.50;51.70;;;;;;5016389;28;20180;-86
2023/05/31 10:06:18;;;;;;;2.97;1.00;;;21.40;70.50;;;;;;5016072;28;20634;-85
2023/05/31 10:08:46;;;;;;;0.85;0.77;;;21.10;72.50;;;;;;5016251;28;20184;-84
2023/05/31 10:11:13;;;;;;;2.85;0.77;;;;;;;;;;5015892;28;20189;-85
2023/05/31 10:13:43;;;;;;;3.25;0.80;;;21.50;54.30;;;;;;5016320;28;20179;-85
2023/05/31 10:16:10;;;;;;;3.15;1.33;;;22.30;76.20;;;;;;5016371;28;20200;-85
2023/05/31 10:18:40;;;;;;;3.47;1.50;;;21.90;54.90;;;;;;4999606;28;20181;-85
2023/05/31 10:21:24;;;;;;;1.35;0.80;;;21.90;55.40;;;;;;5017462;28;20208;-84
2023/05/31 10:24:17;;;;;;;2.78;1.20;;;22.40;76.00;;;;;;5030407;28;20229;-84
2023/05/31 10:27:26;;;;;;;2.13;1.15;;;22.20;76.50;;;;;;5040240;28;20180;-85
2023/05/31 10:29:55;;;;;;;1.58;1.38;;;22.40;77.90;;;;;;5016023;28;20172;-85
2023/05/31 10:32:26;;;;;;;1.95;0.70;;;22.30;54.20;;;;;;5015433;28;20174;-84
2023/05/31 10:34:53;;;;;;;1.90;0.60;;;;;;;;;;5016270;28;20177;-85
2023/05/31 10:37:20;;;;;;;1.30;1.02;;;22.10;54.30;;;;;;5015446;28;20179;-85
2023/05/31 10:40:00;;;;;;;4.78;1.40;;;21.80;73.10;;;;;;4998101;28;20205;-85
2023/05/31 10:42:53;;;;;;;1.92;0.90;;;21.60;71.20;;;;;;5016299;28;20178;-85
2023/05/31 10:45:29;;;;;;;3.40;1.33;;;22.10;52.70;;;;;;5049528;28;20182;-85
2023/05/31 10:48:10;;;;;;;2.15;0.80;;;22.20;53.20;;;;;;5010638;28;20684;-85
2023/05/31 10:50:51;;;;;;;1.38;0.82;;;21.40;53.10;;;;;;5042650;28;20184;-84
2023/05/31 10:53:16;;;;;;;1.15;0.90;;;21.40;53.70;;;;;;5020750;28;20168;-83
2023/05/31 10:55:43;;;;;;;0.90;0.80;;;21.70;52.70;;;;;;5003694;28;20185;-85
2023/05/31 10:58:29;;;;;;;4.53;0.80;;;21.70;53.20;;;;;;4999293;28;20177;-85
2023/05/31 11:01:04;;;;;;;3.40;1.13;;;22.30;68.90;;;;;;5048423;28;20227;-84
2023/05/31 11:03:35;;;;;;;1.30;0.77;;;22.00;52.30;;;;;;5036006;28;20203;-85
2023/05/31 11:06:06;;;;;;;1.80;1.25;;;22.10;50.60;;;;;;5032506;28;20165;-85
2023/05/31 11:08:32;;;;;;;1.42;0.90;;;21.90;67.20;;;;;;5002946;28;20268;-84
2023/05/31 11:11:26;;;;;;;4.18;1.38;;;22.20;68.80;;;;;;4998459;28;20282;-84
2023/05/31 11:14:06;;;;;;;0.98;0.80;;;22.10;50.40;;;;;;4993150;28;20193;-84
2023/05/31 11:16:33;;;;;;;3.22;0.75;;;22.30;49.70;;;;;;5016394;28;20173;-83
2023/05/31 11:19:07;;;;;;;1.02;0.80;;;22.00;68.50;;;;;;4998486;28;20188;-84
2023/05/31 11:21:46;;;;;;;1.33;1.08;;;22.10;71.40;;;;;;4980827;28;20215;-84
2023/05/31 11:24:25;;;;;;;2.90;0.95;;;22.00;71.60;;;;;;4997205;28;20232;-84
2023/05/31 11:26:56;;;;;;;2.38;0.85;;;22.40;53.10;;;;;;5030182;28;20205;-85
2023/05/31 11:29:22;;;;;;;1.45;0.63;;;;;;;;;;5029844;28;20182;-85
2023/05/31 11:31:51;;;;;;;2.58;0.73;;;22.40;71.10;;;;;;5014461;28;20227;-84
2023/05/31 11:34:24;;;;;;;4.07;1.08;;;22.10;52.70;;;;;;5014434;28;20709;-84
2023/05/31 11:36:50;;;;;;;2.15;1.17;;;22.20;51.60;;;;;;5014782;28;20184;-84
2023/05/31 11:39:17;;;;;;;1.65;0.80;;;22.20;52.90;;;;;;5014697;28;20267;-85
2023/05/31 11:41:46;;;;;;;2.30;0.70;;;22.20;70.20;;;;;;5014255;28;20205;-85
2023/05/31 11:44:19;;;;;;;0.75;0.73;;;22.20;53.40;;;;;;4996891;28;20634;-85
2023/05/31 11:46:49;;;;;;;1.80;0.88;;;22.20;52.30;;;;;;4999179;28;20177;-84
2023/05/31 11:49:15;;;;;;;2.33;0.95;;;;;;;;;;4999434;28;20181;-86
2023/05/31 11:51:44;;;;;;;1.13;0.80;;;22.40;53.20;;;;;;5014018;28;20177;-85
2023/05/31 11:54:12;;;;;;;2.45;0.95;;;22.10;52.00;;;;;;5029412;28;20220;-85
2023/05/31 11:56:38;;;;;;;3.60;0.98;;;22.40;72.00;;;;;;4996038;28;20614;-85
2023/05/31 11:59:04;;;;;;;0.93;0.70;;;;;;;;;;5013985;28;20181;-84
2023/05/31 12:01:36;;;;;;;4.15;0.88;;;22.60;69.70;;;;;;5013658;28;20181;-84
2023/05/31 12:04:02;;;;;;;2.85;1.15;;;22.40;50.90;;;;;;5014133;28;20211;-84
2023/05/31 12:06:28;;;;;;;1.52;0.90;;;;;;;;;;4996648;28;20201;-83
2023/05/31 12:08:55;;;;;;;1.75;0.98;;;22.50;48.10;;;;;;5014138;28;20610;-85
2023/05/31 12:11:25;;;;;;;1.35;0.82;;;22.40;47.80;;;;;;5014106;28;20704;-84
2023/05/31 12:13:54;;;;;;;2.05;0.85;;;22.60;48.70;;;;;;5013692;28;20180;-84
2023/05/31 12:16:20;;;;;;;3.30;0.93;;;;;;;;;;5015514;28;20173;-85
2023/05/31 12:18:50;;;;;;;0.80;0.80;;;22.50;49.40;;;;;;5031490;28;20204;-84
2023/05/31 12:21:16;;;;;;;1.27;0.90;;;;;;;;;;5014258;28;20228;-84
2023/05/31 12:23:52;;;;;;;1.15;0.80;;;22.40;49.90;;;;;;5028826;28;20244;-84
2023/05/31 12:26:19;;;;;;;2.20;1.20;;;;;;;;;;4997010;28;20165;-84
2023/05/31 12:28:45;;;;;;;1.25;1.00;;;22.40;50.40;;;;;;5014409;28;20181;-84
2023/05/31 12:31:11;;;;;;;1.67;1.30;;;;;;;;;;5030901;28;20185;-84
2023/05/31 12:33:37;;;;;;;2.97;1.45;;;22.40;50.40;;;;;;5014661;28;20657;-85
2023/05/31 12:36:03;;;;;;;2.95;1.35;;;22.40;51.20;;;;;;5014667;28;20236;-84
2023/05/31 12:38:31;;;;;;;4.43;1.30;;;22.40;51.80;;;;;;4997406;28;20216;-84
2023/05/31 12:40:57;;;;;;;2.00;1.17;;;22.60;52.70;;;;;;5014276;28;20208;-84
2023/05/31 12:43:23;;;;;;;1.60;1.08;;;;;;;;;;5029851;28;20185;-84
2023/05/31 12:45:52;;;;;;;1.85;1.27;;;22.70;51.30;;;;;;5014506;28;20252;-84
2023/05/31 12:48:23;;;;;;;5.93;1.42;;;23.00;52.50;;;;;;5016207;28;20234;-84
2023/05/31 12:50:48;;;;;;;3.55;1.30;;;23.20;53.10;;;;;;5030614;28;20177;-84
2023/05/31 12:53:14;;;;;;;1.63;1.10;;;23.30;50.40;;;;;;5030013;28;20188;-83
2023/05/31 12:55:41;;;;;;;2.80;1.00;;;;;;;;;;4999376;28;20180;-84
2023/05/31 12:58:07;;;;;;;3.08;1.08;;;;;;;;;;4996872;28;20216;-84
2023/05/31 13:00:33;;;;;;;1.05;0.90;;;22.80;50.60;;;;;;5013277;28;20240;-84
2023/05/31 13:02:58;;;;;;;1.17;0.82;;;23.00;51.10;;;;;;5013394;28;20212;-84
2023/05/31 13:05:25;;;;;;;3.97;1.00;;;;;;;;;;5013423;28;20177;-84
2023/05/31 13:07:52;;;;;;;1.38;1.00;;;;;;;;;;5013310;28;20192;-84
2023/05/31 13:10:18;;;;;;;4.97;1.48;;;22.90;50.20;;;;;;5013278;28;20673;-84
2023/05/31 13:12:44;;;;;;;1.92;1.13;;;23.10;52.70;;;;;;4995198;28;20332;-84
2023/05/31 13:15:10;;;;;;;3.55;1.30;;;23.10;50.60;;;;;;5012583;28;20542;-85
2023/05/31 13:17:36;;;;;;;1.40;0.75;;;23.00;49.50;;;;;;5012647;28;20550;-84
2023/05/31 13:20:03;;;;;;;1.52;0.90;;;23.10;51.20;;;;;;5012350;28;20220;-84